sensor_id;sensor_type;location;lat;lon;timestamp;noise_LAeq;noise_LA_min;noise_LA_max;noise_LA01;noise_LA95
37223;Laerm;28026;48.562;14.440;2023-06-24T00:01:33;41.79;35.36;61.20;;
37223;Laerm;28026;48.562;14.440;2023-06-24T00:04:04;42.17;35.04;65.66;;
37223;Laerm;28026;48.562;14.440;2023-06-24T00:06:35;42.59;35.66;64.80;;
37223;Laerm;28026;48.562;14.440;2023-06-24T00:09:07;43.10;34.69;70.06;;
37223;Laerm;28026;48.562;14.440;2023-06-24T00:11:38;43.28;35.04;62.76;;
37223;Laerm;28026;48.562;14.440;2023-06-24T00:14:09;44.28;36.69;59.68;;
37223;Laerm;28026;48.562;14.440;2023-06-24T00:16:41;45.51;37.12;68.76;;
37223;Laerm;28026;48.562;14.440;2023-06-24T00:19:12;46.53;35.94;71.83;;
37223;Laerm;28026;48.562;14.440;2023-06-24T00:21:43;51.46;38.05;80.40;;
37223;Laerm;28026;48.562;14.440;2023-06-24T00:24:13;46.53;39.58;59.35;;
37223;Laerm;28026;48.562;14.440;2023-06-24T00:26:45;44.91;37.35;58.48;;
37223;Laerm;28026;48.562;14.440;2023-06-24T00:29:16;45.25;34.69;68.26;;
37223;Laerm;28026;48.562;14.440;2023-06-24T00:31:47;44.67;35.66;63.81;;
37223;Laerm;28026;48.562;14.440;2023-06-24T00:34:18;43.94;34.69;58.13;;
37223;Laerm;28026;48.562;14.440;2023-06-24T00:36:50;44.18;35.94;58.51;;
37223;Laerm;28026;48.562;14.440;2023-06-24T00:39:21;44.51;36.20;59.56;;
37223;Laerm;28026;48.562;14.440;2023-06-24T00:41:53;44.14;35.94;58.61;;
37223;Laerm;28026;48.562;14.440;2023-06-24T00:44:23;44.52;35.66;60.00;;
37223;Laerm;28026;48.562;14.440;2023-06-24T00:46:55;45.06;36.20;61.03;;
37223;Laerm;28026;48.562;14.440;2023-06-24T00:49:26;44.98;36.69;60.72;;
37223;Laerm;28026;48.562;14.440;2023-06-24T00:51:57;45.24;36.91;59.46;;
37223;Laerm;28026;48.562;14.440;2023-06-24T00:54:27;45.97;37.32;61.68;;
37223;Laerm;28026;48.562;14.440;2023-06-24T00:57:01;44.57;35.66;59.16;;
37223;Laerm;28026;48.562;14.440;2023-06-24T00:59:32;51.30;35.66;78.29;;
37223;Laerm;28026;48.562;14.440;2023-06-24T01:02:04;43.89;35.94;60.17;;
37223;Laerm;28026;48.562;14.440;2023-06-24T01:04:36;44.60;36.20;68.66;;
37223;Laerm;28026;48.562;14.440;2023-06-24T01:07:07;45.12;38.37;60.10;;
37223;Laerm;28026;48.562;14.440;2023-06-24T01:09:38;44.79;35.66;62.83;;
37223;Laerm;28026;48.562;14.440;2023-06-24T01:12:09;45.41;35.94;69.49;;
37223;Laerm;28026;48.562;14.440;2023-06-24T01:14:40;44.96;35.36;65.99;;
37223;Laerm;28026;48.562;14.440;2023-06-24T01:17:32;44.97;33.90;62.64;;
37223;Laerm;28026;48.562;14.440;2023-06-24T01:20:52;44.81;36.45;62.03;;
37223;Laerm;28026;48.562;14.440;2023-06-24T01:30:54;44.91;35.36;61.37;;
37223;Laerm;28026;48.562;14.440;2023-06-24T01:33:36;44.29;35.66;61.14;;
37223;Laerm;28026;48.562;14.440;2023-06-24T01:36:14;44.68;35.94;59.43;;
37223;Laerm;28026;48.562;14.440;2023-06-24T01:38:52;44.95;35.66;59.80;;
37223;Laerm;28026;48.562;14.440;2023-06-24T01:41:31;45.29;35.66;61.26;;
37223;Laerm;28026;48.562;14.440;2023-06-24T01:44:05;45.44;36.91;60.94;;
37223;Laerm;28026;48.562;14.440;2023-06-24T01:46:41;45.66;36.20;60.77;;
37223;Laerm;28026;48.562;14.440;2023-06-24T01:49:15;45.47;36.20;61.43;;
37223;Laerm;28026;48.562;14.440;2023-06-24T01:51:47;45.37;35.66;59.09;;
37223;Laerm;28026;48.562;14.440;2023-06-24T01:54:21;46.46;37.12;60.20;;
37223;Laerm;28026;48.562;14.440;2023-06-24T01:56:55;48.46;38.95;66.43;;
37223;Laerm;28026;48.562;14.440;2023-06-24T01:59:29;49.64;40.33;70.40;;
37223;Laerm;28026;48.562;14.440;2023-06-24T02:02:03;51.18;42.03;69.08;;
37223;Laerm;28026;48.562;14.440;2023-06-24T02:04:37;51.82;42.47;61.49;;
37223;Laerm;28026;48.562;14.440;2023-06-24T02:07:10;52.58;42.35;61.91;;
37223;Laerm;28026;48.562;14.440;2023-06-24T02:09:44;54.57;43.29;62.02;;
37223;Laerm;28026;48.562;14.440;2023-06-24T02:12:17;54.66;44.65;61.56;;
37223;Laerm;28026;48.562;14.440;2023-06-24T02:14:50;54.49;44.58;62.11;;
37223;Laerm;28026;48.562;14.440;2023-06-24T02:17:24;53.29;42.93;63.05;;
37223;Laerm;28026;48.562;14.440;2023-06-24T02:19:58;52.89;42.29;67.48;;
37223;Laerm;28026;48.562;14.440;2023-06-24T02:22:30;52.87;43.09;73.13;;
37223;Laerm;28026;48.562;14.440;2023-06-24T02:25:02;53.42;42.16;66.49;;
37223;Laerm;28026;48.562;14.440;2023-06-24T02:27:35;53.05;42.65;62.68;;
37223;Laerm;28026;48.562;14.440;2023-06-24T02:30:08;60.94;43.19;84.79;;
37223;Laerm;28026;48.562;14.440;2023-06-24T02:32:39;52.94;43.04;64.37;;
37223;Laerm;28026;48.562;14.440;2023-06-24T02:35:10;52.09;41.89;66.23;;
37223;Laerm;28026;48.562;14.440;2023-06-24T02:37:41;52.78;41.61;70.83;;
37223;Laerm;28026;48.562;14.440;2023-06-24T02:40:13;53.48;41.82;68.71;;
37223;Laerm;28026;48.562;14.440;2023-06-24T02:42:43;55.99;45.01;70.83;;
37223;Laerm;28026;48.562;14.440;2023-06-24T02:45:15;52.56;42.29;61.59;;
37223;Laerm;28026;48.562;14.440;2023-06-24T02:47:47;49.59;40.23;59.34;;
37223;Laerm;28026;48.562;14.440;2023-06-24T02:50:20;48.03;38.18;59.65;;
37223;Laerm;28026;48.562;14.440;2023-06-24T02:52:52;46.23;36.45;59.64;;
37223;Laerm;28026;48.562;14.440;2023-06-24T02:55:23;43.93;35.04;58.47;;
37223;Laerm;28026;48.562;14.440;2023-06-24T02:57:55;42.77;35.04;58.01;;
37223;Laerm;28026;48.562;14.440;2023-06-24T03:00:27;43.14;33.90;58.16;;
37223;Laerm;28026;48.562;14.440;2023-06-24T03:03:00;42.75;35.36;55.74;;
37223;Laerm;28026;48.562;14.440;2023-06-24T03:05:32;43.42;34.31;71.30;;
37223;Laerm;28026;48.562;14.440;2023-06-24T03:08:06;41.99;34.31;62.76;;
37223;Laerm;28026;48.562;14.440;2023-06-24T03:10:37;42.27;33.90;58.48;;
37223;Laerm;28026;48.562;14.440;2023-06-24T03:13:08;44.85;35.36;63.77;;
37223;Laerm;28026;48.562;14.440;2023-06-24T03:15:39;52.82;42.03;63.98;;
37223;Laerm;28026;48.562;14.440;2023-06-24T03:18:09;57.68;38.87;82.72;;
37223;Laerm;28026;48.562;14.440;2023-06-24T03:20:40;48.59;35.04;63.27;;
37223;Laerm;28026;48.562;14.440;2023-06-24T03:23:11;47.10;35.04;65.91;;
37223;Laerm;28026;48.562;14.440;2023-06-24T03:25:42;43.85;36.69;57.57;;
37223;Laerm;28026;48.562;14.440;2023-06-24T03:28:13;42.97;35.36;62.33;;
37223;Laerm;28026;48.562;14.440;2023-06-24T03:30:44;44.10;35.36;60.04;;
37223;Laerm;28026;48.562;14.440;2023-06-24T03:33:15;43.91;34.69;57.69;;
37223;Laerm;28026;48.562;14.440;2023-06-24T03:35:47;43.27;34.31;58.96;;
37223;Laerm;28026;48.562;14.440;2023-06-24T03:38:18;44.18;36.69;58.05;;
37223;Laerm;28026;48.562;14.440;2023-06-24T03:40:49;56.17;35.66;80.03;;
37223;Laerm;28026;48.562;14.440;2023-06-24T03:43:20;47.76;35.94;70.71;;
37223;Laerm;28026;48.562;14.440;2023-06-24T03:45:50;44.92;36.20;60.88;;
37223;Laerm;28026;48.562;14.440;2023-06-24T03:48:21;45.80;35.36;59.94;;
37223;Laerm;28026;48.562;14.440;2023-06-24T03:50:52;46.01;35.94;58.93;;
37223;Laerm;28026;48.562;14.440;2023-06-24T03:53:23;48.39;37.17;60.52;;
37223;Laerm;28026;48.562;14.440;2023-06-24T03:55:53;49.68;40.53;60.63;;
37223;Laerm;28026;48.562;14.440;2023-06-24T03:58:24;50.64;41.06;61.11;;
37223;Laerm;28026;48.562;14.440;2023-06-24T04:00:55;49.28;39.92;60.30;;
37223;Laerm;28026;48.562;14.440;2023-06-24T04:03:27;48.68;39.08;60.73;;
37223;Laerm;28026;48.562;14.440;2023-06-24T04:05:59;49.37;39.58;60.19;;
37223;Laerm;28026;48.562;14.440;2023-06-24T04:08:32;50.40;40.53;60.02;;
37223;Laerm;28026;48.562;14.440;2023-06-24T04:11:03;47.91;37.52;59.20;;
37223;Laerm;28026;48.562;14.440;2023-06-24T04:13:34;49.02;37.70;65.04;;
37223;Laerm;28026;48.562;14.440;2023-06-24T04:16:04;50.17;40.33;62.46;;
37223;Laerm;28026;48.562;14.440;2023-06-24T04:18:35;48.24;37.70;60.88;;
37223;Laerm;28026;48.562;14.440;2023-06-24T04:21:10;46.02;36.45;59.17;;
37223;Laerm;28026;48.562;14.440;2023-06-24T04:23:40;45.11;36.91;59.35;;
37223;Laerm;28026;48.562;14.440;2023-06-24T04:26:11;54.92;35.66;73.46;;
37223;Laerm;28026;48.562;14.440;2023-06-24T04:28:42;52.28;37.12;74.62;;
37223;Laerm;28026;48.562;14.440;2023-06-24T04:31:13;49.25;39.46;60.49;;
37223;Laerm;28026;48.562;14.440;2023-06-24T04:33:44;49.81;40.80;60.50;;
37223;Laerm;28026;48.562;14.440;2023-06-24T04:36:15;48.16;36.45;60.18;;
37223;Laerm;28026;48.562;14.440;2023-06-24T04:38:46;44.05;35.36;60.69;;
37223;Laerm;28026;48.562;14.440;2023-06-24T04:41:17;42.38;35.04;56.13;;
37223;Laerm;28026;48.562;14.440;2023-06-24T04:43:49;41.33;34.31;57.40;;
37223;Laerm;28026;48.562;14.440;2023-06-24T04:46:20;42.45;35.36;57.66;;
37223;Laerm;28026;48.562;14.440;2023-06-24T04:48:52;42.12;33.44;57.43;;
37223;Laerm;28026;48.562;14.440;2023-06-24T04:51:23;41.98;35.04;56.32;;
37223;Laerm;28026;48.562;14.440;2023-06-24T04:53:53;41.66;34.34;55.90;;
37223;Laerm;28026;48.562;14.440;2023-06-24T04:56:25;42.05;34.31;62.02;;
37223;Laerm;28026;48.562;14.440;2023-06-24T04:58:56;42.67;33.90;57.92;;
37223;Laerm;28026;48.562;14.440;2023-06-24T05:01:27;41.37;34.69;61.23;;
37223;Laerm;28026;48.562;14.440;2023-06-24T05:03:57;42.10;34.31;55.44;;
37223;Laerm;28026;48.562;14.440;2023-06-24T05:06:28;40.76;33.90;56.93;;
37223;Laerm;28026;48.562;14.440;2023-06-24T05:08:59;41.62;35.66;59.59;;
37223;Laerm;28026;48.562;14.440;2023-06-24T05:11:30;42.59;36.20;51.30;;
37223;Laerm;28026;48.562;14.440;2023-06-24T05:14:01;41.17;33.44;56.11;;
37223;Laerm;28026;48.562;14.440;2023-06-24T05:16:32;41.49;34.69;54.45;;
37223;Laerm;28026;48.562;14.440;2023-06-24T05:19:02;43.57;35.36;55.10;;
37223;Laerm;28026;48.562;14.440;2023-06-24T05:21:33;43.15;33.90;57.15;;
37223;Laerm;28026;48.562;14.440;2023-06-24T05:24:04;42.23;33.44;58.68;;
37223;Laerm;28026;48.562;14.440;2023-06-24T05:26:35;44.45;35.36;54.04;;
37223;Laerm;28026;48.562;14.440;2023-06-24T05:29:06;41.65;32.93;58.23;;
37223;Laerm;28026;48.562;14.440;2023-06-24T05:31:37;40.14;32.58;49.64;;
37223;Laerm;28026;48.562;14.440;2023-06-24T05:34:08;40.55;32.93;48.08;;
37223;Laerm;28026;48.562;14.440;2023-06-24T05:36:38;39.32;33.90;55.26;;
37223;Laerm;28026;48.562;14.440;2023-06-24T05:39:09;41.31;33.90;56.37;;
37223;Laerm;28026;48.562;14.440;2023-06-24T05:41:41;43.53;35.36;58.59;;
37223;Laerm;28026;48.562;14.440;2023-06-24T05:44:12;43.30;35.04;65.11;;
37223;Laerm;28026;48.562;14.440;2023-06-24T05:46:45;41.07;36.20;53.22;;
37223;Laerm;28026;48.562;14.440;2023-06-24T05:49:15;40.18;33.90;51.41;;
37223;Laerm;28026;48.562;14.440;2023-06-24T05:51:46;46.15;35.66;69.25;;
37223;Laerm;28026;48.562;14.440;2023-06-24T05:54:17;44.17;38.05;58.49;;
37223;Laerm;28026;48.562;14.440;2023-06-24T05:56:48;42.07;33.90;67.36;;
37223;Laerm;28026;48.562;14.440;2023-06-24T05:59:19;42.51;36.20;64.22;;
37223;Laerm;28026;48.562;14.440;2023-06-24T06:01:49;42.71;35.66;53.21;;
37223;Laerm;28026;48.562;14.440;2023-06-24T06:04:20;39.76;34.69;51.86;;
37223;Laerm;28026;48.562;14.440;2023-06-24T06:06:51;42.83;36.45;57.67;;
37223;Laerm;28026;48.562;14.440;2023-06-24T06:09:22;47.59;35.04;72.00;;
37223;Laerm;28026;48.562;14.440;2023-06-24T06:11:53;40.73;35.04;49.50;;
37223;Laerm;28026;48.562;14.440;2023-06-24T06:14:23;42.07;34.31;59.70;;
37223;Laerm;28026;48.562;14.440;2023-06-24T06:16:54;40.16;34.69;54.63;;
37223;Laerm;28026;48.562;14.440;2023-06-24T06:19:25;40.30;35.36;61.60;;
37223;Laerm;28026;48.562;14.440;2023-06-24T06:21:56;40.71;33.90;63.51;;
37223;Laerm;28026;48.562;14.440;2023-06-24T06:24:26;39.15;33.44;58.83;;
37223;Laerm;28026;48.562;14.440;2023-06-24T06:26:58;40.24;35.66;47.30;;
37223;Laerm;28026;48.562;14.440;2023-06-24T06:29:29;40.41;34.69;54.16;;
37223;Laerm;28026;48.562;14.440;2023-06-24T06:32:00;42.18;36.91;47.87;;
37223;Laerm;28026;48.562;14.440;2023-06-24T06:34:31;40.54;35.04;63.03;;
37223;Laerm;28026;48.562;14.440;2023-06-24T06:37:04;38.63;35.04;54.07;;
37223;Laerm;28026;48.562;14.440;2023-06-24T06:39:35;41.44;34.31;58.85;;
37223;Laerm;28026;48.562;14.440;2023-06-24T06:42:06;41.80;35.94;55.58;;
37223;Laerm;28026;48.562;14.440;2023-06-24T06:44:37;42.16;35.94;58.09;;
37223;Laerm;28026;48.562;14.440;2023-06-24T06:47:07;42.50;37.17;56.94;;
37223;Laerm;28026;48.562;14.440;2023-06-24T06:49:38;41.47;35.94;55.47;;
37223;Laerm;28026;48.562;14.440;2023-06-24T06:52:09;42.38;35.94;55.43;;
37223;Laerm;28026;48.562;14.440;2023-06-24T06:54:40;40.10;34.31;62.23;;
37223;Laerm;28026;48.562;14.440;2023-06-24T06:57:11;39.37;34.69;55.80;;
37223;Laerm;28026;48.562;14.440;2023-06-24T06:59:41;41.09;35.36;53.77;;
37223;Laerm;28026;48.562;14.440;2023-06-24T07:02:12;42.53;37.52;48.26;;
37223;Laerm;28026;48.562;14.440;2023-06-24T07:04:43;42.43;37.52;52.34;;
37223;Laerm;28026;48.562;14.440;2023-06-24T07:07:14;41.07;35.04;52.80;;
37223;Laerm;28026;48.562;14.440;2023-06-24T07:09:45;39.79;34.69;56.51;;
37223;Laerm;28026;48.562;14.440;2023-06-24T07:12:17;40.63;35.94;56.73;;
37223;Laerm;28026;48.562;14.440;2023-06-24T07:14:47;39.71;35.36;52.53;;
37223;Laerm;28026;48.562;14.440;2023-06-24T07:17:18;41.28;34.31;55.56;;
37223;Laerm;28026;48.562;14.440;2023-06-24T07:19:49;42.60;34.31;59.32;;
37223;Laerm;28026;48.562;14.440;2023-06-24T07:22:20;41.76;35.66;65.48;;
37223;Laerm;28026;48.562;14.440;2023-06-24T07:24:50;44.17;36.69;61.83;;
37223;Laerm;28026;48.562;14.440;2023-06-24T07:27:21;41.98;35.04;56.36;;
37223;Laerm;28026;48.562;14.440;2023-06-24T07:29:52;40.82;35.04;54.62;;
37223;Laerm;28026;48.562;14.440;2023-06-24T07:32:23;40.18;34.69;51.69;;
37223;Laerm;28026;48.562;14.440;2023-06-24T07:34:54;40.77;35.04;58.18;;
37223;Laerm;28026;48.562;14.440;2023-06-24T07:37:24;41.55;36.20;52.78;;
37223;Laerm;28026;48.562;14.440;2023-06-24T07:39:55;41.74;35.66;57.31;;
37223;Laerm;28026;48.562;14.440;2023-06-24T07:42:26;41.29;34.69;61.12;;
37223;Laerm;28026;48.562;14.440;2023-06-24T07:44:57;42.06;35.04;59.85;;
37223;Laerm;28026;48.562;14.440;2023-06-24T07:47:27;45.22;38.95;60.31;;
37223;Laerm;28026;48.562;14.440;2023-06-24T07:49:58;44.41;35.66;65.16;;
37223;Laerm;28026;48.562;14.440;2023-06-24T07:52:29;42.25;35.94;58.78;;
37223;Laerm;28026;48.562;14.440;2023-06-24T07:55:00;41.92;35.66;56.92;;
37223;Laerm;28026;48.562;14.440;2023-06-24T07:57:30;40.35;34.31;45.51;;
37223;Laerm;28026;48.562;14.440;2023-06-24T08:00:02;42.16;35.04;55.30;;
37223;Laerm;28026;48.562;14.440;2023-06-24T08:02:33;40.79;34.69;52.19;;
37223;Laerm;28026;48.562;14.440;2023-06-24T08:05:04;40.66;35.36;53.40;;
37223;Laerm;28026;48.562;14.440;2023-06-24T08:07:37;41.85;35.36;53.39;;
37223;Laerm;28026;48.562;14.440;2023-06-24T08:10:08;42.05;36.91;59.10;;
37223;Laerm;28026;48.562;14.440;2023-06-24T08:12:39;42.17;35.36;55.86;;
37223;Laerm;28026;48.562;14.440;2023-06-24T08:15:10;40.14;34.31;51.64;;
37223;Laerm;28026;48.562;14.440;2023-06-24T08:17:41;44.28;36.69;57.04;;
37223;Laerm;28026;48.562;14.440;2023-06-24T08:20:12;43.41;36.45;56.10;;
37223;Laerm;28026;48.562;14.440;2023-06-24T08:22:42;43.65;36.45;62.88;;
37223;Laerm;28026;48.562;14.440;2023-06-24T08:25:13;42.18;35.36;59.65;;
37223;Laerm;28026;48.562;14.440;2023-06-24T08:27:45;43.03;36.20;58.60;;
37223;Laerm;28026;48.562;14.440;2023-06-24T08:30:17;41.03;35.36;53.53;;
37223;Laerm;28026;48.562;14.440;2023-06-24T08:32:48;41.78;35.94;58.87;;
37223;Laerm;28026;48.562;14.440;2023-06-24T08:35:19;41.38;35.04;56.14;;
37223;Laerm;28026;48.562;14.440;2023-06-24T08:37:50;45.05;38.52;57.94;;
37223;Laerm;28026;48.562;14.440;2023-06-24T08:40:21;41.33;34.69;54.41;;
37223;Laerm;28026;48.562;14.440;2023-06-24T08:42:51;43.29;35.94;58.35;;
37223;Laerm;28026;48.562;14.440;2023-06-24T08:45:22;42.12;33.44;59.86;;
37223;Laerm;28026;48.562;14.440;2023-06-24T08:47:54;42.85;33.44;53.21;;
37223;Laerm;28026;48.562;14.440;2023-06-24T08:50:32;40.00;33.90;51.79;;
37223;Laerm;28026;48.562;14.440;2023-06-24T08:53:07;42.74;33.44;56.83;;
37223;Laerm;28026;48.562;14.440;2023-06-24T08:55:44;43.42;34.69;70.60;;
37223;Laerm;28026;48.562;14.440;2023-06-24T08:58:15;42.18;33.44;61.84;;
37223;Laerm;28026;48.562;14.440;2023-06-24T09:00:47;42.29;35.04;54.26;;
37223;Laerm;28026;48.562;14.440;2023-06-24T09:03:17;42.18;36.77;58.42;;
37223;Laerm;28026;48.562;14.440;2023-06-24T09:05:48;44.93;37.17;59.51;;
37223;Laerm;28026;48.562;14.440;2023-06-24T09:08:19;42.03;36.20;55.31;;
37223;Laerm;28026;48.562;14.440;2023-06-24T09:10:55;46.08;38.81;56.67;;
37223;Laerm;28026;48.562;14.440;2023-06-24T09:13:36;42.54;34.31;62.63;;
37223;Laerm;28026;48.562;14.440;2023-06-24T09:16:14;42.17;35.66;61.16;;
37223;Laerm;28026;48.562;14.440;2023-06-24T09:18:49;42.38;37.88;63.99;;
37223;Laerm;28026;48.562;14.440;2023-06-24T09:21:26;44.38;40.13;63.61;;
37223;Laerm;28026;48.562;14.440;2023-06-24T09:23:59;45.07;40.03;65.43;;
37223;Laerm;28026;48.562;14.440;2023-06-24T09:26:30;43.46;39.46;52.60;;
37223;Laerm;28026;48.562;14.440;2023-06-24T09:29:00;43.55;39.21;54.11;;
37223;Laerm;28026;48.562;14.440;2023-06-24T09:31:31;43.15;39.70;54.14;;
37223;Laerm;28026;48.562;14.440;2023-06-24T09:34:02;42.49;36.45;58.66;;
37223;Laerm;28026;48.562;14.440;2023-06-24T09:36:33;43.10;39.34;54.87;;
37223;Laerm;28026;48.562;14.440;2023-06-24T09:39:07;41.90;37.35;50.64;;
37223;Laerm;28026;48.562;14.440;2023-06-24T09:41:42;42.37;38.21;52.21;;
37223;Laerm;28026;48.562;14.440;2023-06-24T09:44:13;42.37;38.21;48.29;;
37223;Laerm;28026;48.562;14.440;2023-06-24T09:46:44;42.80;39.46;54.78;;
37223;Laerm;28026;48.562;14.440;2023-06-24T09:49:15;43.42;40.33;60.95;;
37223;Laerm;28026;48.562;14.440;2023-06-24T09:51:57;44.13;39.92;61.16;;
37223;Laerm;28026;48.562;14.440;2023-06-24T09:54:28;42.95;39.81;47.65;;
37223;Laerm;28026;48.562;14.440;2023-06-24T09:57:02;44.16;40.71;51.85;;
37223;Laerm;28026;48.562;14.440;2023-06-24T09:59:34;48.07;41.89;80.89;;
37223;Laerm;28026;48.562;14.440;2023-06-24T10:02:12;56.88;40.80;77.04;;
37223;Laerm;28026;48.562;14.440;2023-06-24T10:04:45;50.35;40.43;76.14;;
37223;Laerm;28026;48.562;14.440;2023-06-24T10:07:17;42.55;33.90;51.89;;
37223;Laerm;28026;48.562;14.440;2023-06-24T10:09:48;39.32;32.93;43.58;;
37223;Laerm;28026;48.562;14.440;2023-06-24T10:12:19;42.52;32.93;50.56;;
37223;Laerm;28026;48.562;14.440;2023-06-24T10:14:50;42.74;39.81;45.27;;
37223;Laerm;28026;48.562;14.440;2023-06-24T10:17:21;43.16;38.52;55.15;;
37223;Laerm;28026;48.562;14.440;2023-06-24T10:19:53;43.34;40.03;55.36;;
37223;Laerm;28026;48.562;14.440;2023-06-24T10:22:30;43.33;40.23;54.75;;
37223;Laerm;28026;48.562;14.440;2023-06-24T10:25:06;42.91;38.95;51.57;;
37223;Laerm;28026;48.562;14.440;2023-06-24T10:27:39;42.48;38.37;56.22;;
37223;Laerm;28026;48.562;14.440;2023-06-24T10:30:21;42.57;39.21;51.79;;
37223;Laerm;28026;48.562;14.440;2023-06-24T10:32:58;42.78;38.95;51.13;;
37223;Laerm;28026;48.562;14.440;2023-06-24T10:35:28;42.42;39.34;59.91;;
37223;Laerm;28026;48.562;14.440;2023-06-24T10:38:02;44.95;38.67;70.88;;
37223;Laerm;28026;48.562;14.440;2023-06-24T10:40:42;42.44;39.58;46.40;;
37223;Laerm;28026;48.562;14.440;2023-06-24T10:43:29;43.60;39.34;65.06;;
37223;Laerm;28026;48.562;14.440;2023-06-24T10:46:00;41.43;35.36;49.47;;
37223;Laerm;28026;48.562;14.440;2023-06-24T10:48:30;41.48;35.36;51.87;;
37223;Laerm;28026;48.562;14.440;2023-06-24T10:51:01;41.38;33.90;48.31;;
37223;Laerm;28026;48.562;14.440;2023-06-24T10:53:32;43.92;40.03;54.03;;
37223;Laerm;28026;48.562;14.440;2023-06-24T10:56:04;42.71;40.03;44.69;;
37223;Laerm;28026;48.562;14.440;2023-06-24T10:58:35;42.24;38.52;48.39;;
37223;Laerm;28026;48.562;14.440;2023-06-24T11:01:08;42.57;39.46;51.59;;
37223;Laerm;28026;48.562;14.440;2023-06-24T11:03:40;43.24;40.43;56.00;;
37223;Laerm;28026;48.562;14.440;2023-06-24T11:06:11;43.95;41.61;50.07;;
37223;Laerm;28026;48.562;14.440;2023-06-24T11:08:44;44.35;41.30;57.23;;
37223;Laerm;28026;48.562;14.440;2023-06-24T11:11:19;43.54;40.71;51.87;;
37223;Laerm;28026;48.562;14.440;2023-06-24T11:13:52;42.63;39.58;48.12;;
37223;Laerm;28026;48.562;14.440;2023-06-24T11:16:22;43.85;40.63;47.65;;
37223;Laerm;28026;48.562;14.440;2023-06-24T11:18:53;44.09;40.80;63.10;;
37223;Laerm;28026;48.562;14.440;2023-06-24T11:21:30;43.24;38.95;49.96;;
37223;Laerm;28026;48.562;14.440;2023-06-24T11:24:06;42.82;38.05;50.68;;
37223;Laerm;28026;48.562;14.440;2023-06-24T11:26:38;42.73;38.87;55.05;;
37223;Laerm;28026;48.562;14.440;2023-06-24T11:29:12;43.54;38.21;64.17;;
37223;Laerm;28026;48.562;14.440;2023-06-24T11:31:45;42.96;38.52;60.61;;
37223;Laerm;28026;48.562;14.440;2023-06-24T11:34:16;43.59;39.08;67.11;;
37223;Laerm;28026;48.562;14.440;2023-06-24T11:36:48;42.95;40.13;51.77;;
37223;Laerm;28026;48.562;14.440;2023-06-24T11:39:24;42.52;38.37;47.44;;
37223;Laerm;28026;48.562;14.440;2023-06-24T11:41:57;43.58;39.34;53.96;;
37223;Laerm;28026;48.562;14.440;2023-06-24T11:44:31;54.32;35.36;78.25;;
37223;Laerm;28026;48.562;14.440;2023-06-24T11:47:06;45.08;37.52;65.96;;
37223;Laerm;28026;48.562;14.440;2023-06-24T11:49:57;45.77;37.17;65.60;;
37223;Laerm;28026;48.562;14.440;2023-06-24T11:55:25;52.83;38.37;75.18;;
37223;Laerm;28026;48.562;14.440;2023-06-24T11:58:03;59.85;36.20;84.66;;
37223;Laerm;28026;48.562;14.440;2023-06-24T12:00:41;46.58;36.20;61.60;;
37223;Laerm;28026;48.562;14.440;2023-06-24T12:03:14;52.38;37.52;79.60;;
37223;Laerm;28026;48.562;14.440;2023-06-24T12:05:47;48.97;37.52;74.26;;
37223;Laerm;28026;48.562;14.440;2023-06-24T12:08:18;46.37;37.12;67.66;;
37223;Laerm;28026;48.562;14.440;2023-06-24T12:10:49;55.44;39.34;76.98;;
37223;Laerm;28026;48.562;14.440;2023-06-24T12:13:20;46.60;37.52;71.25;;
37223;Laerm;28026;48.562;14.440;2023-06-24T12:15:50;58.77;38.21;80.57;;
37223;Laerm;28026;48.562;14.440;2023-06-24T12:18:21;45.23;39.34;60.17;;
37223;Laerm;28026;48.562;14.440;2023-06-24T12:20:52;44.77;37.88;65.20;;
37223;Laerm;28026;48.562;14.440;2023-06-24T12:23:23;43.39;35.04;62.35;;
37223;Laerm;28026;48.562;14.440;2023-06-24T12:25:53;47.83;36.69;76.67;;
37223;Laerm;28026;48.562;14.440;2023-06-24T12:28:24;44.71;36.91;64.63;;
37223;Laerm;28026;48.562;14.440;2023-06-24T12:30:55;44.56;35.36;61.38;;
37223;Laerm;28026;48.562;14.440;2023-06-24T12:33:26;46.51;37.88;69.25;;
37223;Laerm;28026;48.562;14.440;2023-06-24T12:35:57;53.85;34.69;80.80;;
37223;Laerm;28026;48.562;14.440;2023-06-24T12:38:27;55.41;36.45;77.32;;
37223;Laerm;28026;48.562;14.440;2023-06-24T12:40:59;64.57;37.35;88.31;;
37223;Laerm;28026;48.562;14.440;2023-06-24T12:43:31;66.08;38.52;88.05;;
37223;Laerm;28026;48.562;14.440;2023-06-24T12:46:01;62.01;38.32;82.68;;
37223;Laerm;28026;48.562;14.440;2023-06-24T12:48:32;64.88;37.70;86.25;;
37223;Laerm;28026;48.562;14.440;2023-06-24T12:51:03;67.62;38.52;91.62;;
37223;Laerm;28026;48.562;14.440;2023-06-24T12:53:34;59.57;37.52;87.92;;
37223;Laerm;28026;48.562;14.440;2023-06-24T12:56:04;61.15;38.67;83.84;;
37223;Laerm;28026;48.562;14.440;2023-06-24T12:58:35;61.39;38.05;81.53;;
37223;Laerm;28026;48.562;14.440;2023-06-24T13:01:06;64.10;40.03;87.81;;
37223;Laerm;28026;48.562;14.440;2023-06-24T13:03:37;61.35;38.05;87.13;;
37223;Laerm;28026;48.562;14.440;2023-06-24T13:06:09;56.27;38.67;77.27;;
37223;Laerm;28026;48.562;14.440;2023-06-24T13:08:39;61.26;37.70;82.30;;
37223;Laerm;28026;48.562;14.440;2023-06-24T13:11:10;60.41;38.99;86.58;;
37223;Laerm;28026;48.562;14.440;2023-06-24T13:13:41;58.18;37.32;83.05;;
37223;Laerm;28026;48.562;14.440;2023-06-24T13:16:12;52.54;38.37;79.23;;
37223;Laerm;28026;48.562;14.440;2023-06-24T13:18:42;52.97;38.21;76.46;;
37223;Laerm;28026;48.562;14.440;2023-06-24T13:21:13;54.98;37.88;72.11;;
37223;Laerm;28026;48.562;14.440;2023-06-24T13:23:44;56.11;38.67;78.83;;
37223;Laerm;28026;48.562;14.440;2023-06-24T13:26:16;56.26;38.05;84.41;;
37223;Laerm;28026;48.562;14.440;2023-06-24T13:28:47;59.70;38.95;81.76;;
37223;Laerm;28026;48.562;14.440;2023-06-24T13:31:20;66.76;39.21;87.26;;
37223;Laerm;28026;48.562;14.440;2023-06-24T13:33:50;70.79;35.94;90.62;;
37223;Laerm;28026;48.562;14.440;2023-06-24T13:36:34;64.75;37.12;86.56;;
37223;Laerm;28026;48.562;14.440;2023-06-24T13:39:09;49.74;38.05;68.64;;
37223;Laerm;28026;48.562;14.440;2023-06-24T13:41:45;50.16;36.91;73.01;;
37223;Laerm;28026;48.562;14.440;2023-06-24T13:44:16;52.91;37.88;76.22;;
37223;Laerm;28026;48.562;14.440;2023-06-24T13:46:46;56.61;34.69;80.56;;
37223;Laerm;28026;48.562;14.440;2023-06-24T13:49:17;57.76;35.66;87.35;;
37223;Laerm;28026;48.562;14.440;2023-06-24T13:51:48;48.74;37.12;75.84;;
37223;Laerm;28026;48.562;14.440;2023-06-24T13:54:20;58.79;37.12;79.68;;
37223;Laerm;28026;48.562;14.440;2023-06-24T13:56:51;52.79;37.32;76.51;;
37223;Laerm;28026;48.562;14.440;2023-06-24T13:59:21;49.70;37.12;70.12;;
37223;Laerm;28026;48.562;14.440;2023-06-24T14:01:53;53.59;36.20;77.68;;
37223;Laerm;28026;48.562;14.440;2023-06-24T14:04:24;58.02;37.35;81.47;;
37223;Laerm;28026;48.562;14.440;2023-06-24T14:06:55;60.15;37.52;84.27;;
37223;Laerm;28026;48.562;14.440;2023-06-24T14:09:25;65.39;38.37;93.02;;